MV Sea Wolf — WCW6738 — position and weather

sailwx.info

Track history (hours):
 
Tides and Currents Weather Stations Pressure Air Temp Water Temp Dewpoint Dewpoint Depression Visibility Wind Speed Wind Dir Waves Ship Positions

MV Sea Wolf

Owner: SEA WOLF MARINE TOWING & TRANSPORTATION, Bayonne, NJ. More information available from US FCC via Universal Licensing System and Coast Guard Vessel Documentation Center.

Last reported at 2018-Jan-20 14:18 UTC. Time now 2018-Jan-23 10:13 UTC.
Position N 39°35' W 074°11'.

Length 66 m; draft 10 m.

MMSI: 367002350.

Date/timePositionNaut miles runAvg speedWind from/ knotsBaromVisibWave heightAir tempDewpointWater temp
2018-Jan-20 14:18N 39°35' W 074°11'3 7.3
2018-Jan-20 13:51N 39°38' W 074°09'3 7.3
2018-Jan-20 13:30N 39°40' W 074°08'4 7.3
2018-Jan-20 12:58N 39°43' W 074°05'42 7.5
2018-Jan-20 07:18N 40°25' W 073°56'2 7.8
2018-Jan-20 07:00N 40°27' W 073°56'5 9.4
2018-Jan-20 06:30N 40°30' W 074°01'4 7.0
2018-Jan-20 06:00N 40°33' W 074°03'4 8.7
2018-Jan-20 05:30N 40°38' W 074°03'4 7.3
2018-Jan-20 05:00N 40°41' W 074°05'0 0.0
2018-Jan-20 04:30N 40°41' W 074°05'2 3.1
2018-Jan-20 04:00N 40°40' W 074°03'2 3.5
2018-Jan-20 03:30N 40°40' W 074°01'1 2.3
2018-Jan-20 03:00N 40°41' W 074°01'2 4.3
2018-Jan-20 02:30N 40°42' W 073°59'2 4.1
2018-Jan-20 02:00N 40°44' W 073°58'1 1.6
2018-Jan-20 01:30N 40°44' W 073°57'0 0.1
2018-Jan-20 00:58N 40°44' W 073°57'0 0.0
2018-Jan-20 00:30N 40°44' W 073°57'0 0.0
2018-Jan-20 00:00N 40°44' W 073°57'0 0.2
2018-Jan-19 23:30N 40°44' W 073°57'3 6.7
2018-Jan-19 23:00N 40°42' W 074°00'3 6.0
2018-Jan-19 22:30N 40°40' W 074°03'1 2.3
2018-Jan-19 22:00N 40°41' W 074°05'0 0.2
2018-Jan-19 21:30N 40°41' W 074°05'0 0.0
2018-Jan-19 21:00N 40°41' W 074°05'0 0.0
2018-Jan-19 20:29N 40°41' W 074°05'0 0.0
2018-Jan-19 20:00N 40°41' W 074°05'0 0.0
2018-Jan-19 19:30N 40°41' W 074°05'0 0.0
2018-Jan-19 19:00N 40°41' W 074°05'0 0.0
2018-Jan-19 18:30N 40°41' W 074°05'0 0.0
2018-Jan-19 18:00N 40°41' W 074°05'0 0.3
2018-Jan-19 17:30N 40°41' W 074°04'0 0.2
2018-Jan-19 17:00N 40°41' W 074°04'0 0.0
2018-Jan-19 16:30N 40°41' W 074°04'0 0.1
2018-Jan-19 16:00N 40°41' W 074°04'0 0.3
2018-Jan-19 15:30N 40°41' W 074°04'0 0.3
2018-Jan-19 15:00N 40°41' W 074°05'0 0.2
2018-Jan-19 14:30N 40°41' W 074°05'0 0.7
2018-Jan-19 14:00N 40°41' W 074°04'0 0.2
2018-Jan-19 13:30N 40°41' W 074°04'0 0.4
2018-Jan-19 12:30N 40°41' W 074°05'0 0.0
2018-Jan-19 12:00N 40°41' W 074°05'0 0.0
2018-Jan-19 11:30N 40°41' W 074°05'0 0.0
2018-Jan-19 11:00N 40°41' W 074°05'0 0.0
2018-Jan-19 10:30N 40°41' W 074°05'0 0.0
2018-Jan-19 10:00N 40°41' W 074°05'0 0.0
2018-Jan-19 09:30N 40°41' W 074°05'0 0.0
2018-Jan-19 09:00N 40°41' W 074°05'0 0.5
2018-Jan-19 08:30N 40°41' W 074°04'2 4.7
2018-Jan-19 08:00N 40°40' W 074°02'1 2.1
2018-Jan-19 07:30N 40°40' W 074°01'0 0.3
2018-Jan-19 07:00N 40°40' W 074°01'3 5.6
2018-Jan-19 06:30N 40°42' W 073°60'3 5.4
2018-Jan-19 06:00N 40°44' W 073°57'0 0.2
2018-Jan-19 05:30N 40°44' W 073°57'3 5.9
2018-Jan-19 05:00N 40°47' W 073°55'3 5.8
2018-Jan-19 04:29N 40°49' W 073°52'0 0.1
2018-Jan-19 03:32N 40°49' W 073°52'0 6.3
2018-Jan-19 03:30N 40°48' W 073°52'3 6.6
2018-Jan-19 03:00N 40°47' W 073°56'3 5.2
2018-Jan-19 02:29N 40°44' W 073°57'0 0.6
2018-Jan-19 02:00N 40°44' W 073°57'0 0.0
2018-Jan-19 01:28N 40°44' W 073°57'0 0.0
2018-Jan-19 01:00N 40°44' W 073°57'0 0.0
2018-Jan-19 00:30N 40°44' W 073°57'1 1.1
2018-Jan-18 23:59N 40°44' W 073°57'1 1.1
2018-Jan-18 23:30N 40°44' W 073°58'3 5.9
2018-Jan-18 23:00N 40°42' W 074°00'3 5.3
2018-Jan-18 22:30N 40°40' W 074°03'1 2.5
2018-Jan-18 21:59N 40°41' W 074°04'0 0.1
2018-Jan-18 21:30N 40°41' W 074°05'0 0.3
2018-Jan-18 21:00N 40°41' W 074°05'0 0.0
2018-Jan-18 20:30N 40°41' W 074°05'2 4.2
2018-Jan-18 20:00N 40°39' W 074°05'1 2.3
2018-Jan-18 19:30N 40°39' W 074°07'0 0.0
2018-Jan-18 19:00N 40°39' W 074°07'0 0.0
2018-Jan-18 18:30N 40°39' W 074°07'0 0.0
2018-Jan-18 17:59N 40°39' W 074°07'1 1.8
2018-Jan-18 17:30N 40°39' W 074°06'2 4.8
2018-Jan-18 17:00N 40°41' W 074°05'0 0.0
2018-Jan-18 16:30N 40°41' W 074°05'0 0.0
2018-Jan-18 16:00N 40°41' W 074°05'0 0.0
2018-Jan-18 15:30N 40°41' W 074°05'0 0.0
2018-Jan-18 15:00N 40°41' W 074°05'0 0.0
2018-Jan-18 14:30N 40°41' W 074°05'0 0.1
2018-Jan-18 14:00N 40°41' W 074°05'0 0.1
2018-Jan-18 13:30N 40°41' W 074°05'0 0.0
2018-Jan-18 13:00N 40°41' W 074°05'0 0.0
2018-Jan-18 12:30N 40°41' W 074°05'0 0.0
2018-Jan-18 12:00N 40°41' W 074°05'0 0.0
2018-Jan-18 11:30N 40°41' W 074°05'0 0.0
2018-Jan-18 11:00N 40°41' W 074°05'0 0.0
2018-Jan-18 10:31N 40°41' W 074°05'0 0.0
2018-Jan-18 10:01N 40°41' W 074°05'0 0.0
2018-Jan-18 09:31N 40°41' W 074°05'0 0.0
2018-Jan-18 09:01N 40°41' W 074°05'0 0.0
2018-Jan-18 08:30N 40°41' W 074°05'0 0.0
2018-Jan-18 08:01N 40°41' W 074°05'0 0.0
2018-Jan-18 07:31N 40°41' W 074°05'0 0.0
2018-Jan-18 07:00N 40°41' W 074°05'0 0.0
2018-Jan-18 06:30N 40°41' W 074°05'0 0.0
2018-Jan-18 06:01N 40°41' W 074°05'0 0.0
2018-Jan-18 05:31N 40°41' W 074°05'0 0.0
2018-Jan-18 05:00N 40°41' W 074°05'0 0.0
2018-Jan-18 04:31N 40°41' W 074°05'0 0.0
2018-Jan-18 04:00N 40°41' W 074°05'0 0.0
2018-Jan-18 03:31N 40°41' W 074°05'0 0.0
2018-Jan-18 03:00N 40°41' W 074°05'0 0.0
2018-Jan-18 02:30N 40°41' W 074°05'0 0.0
2018-Jan-18 02:01N 40°41' W 074°05'0 0.0
2018-Jan-18 01:31N 40°41' W 074°05'0 0.0
2018-Jan-18 01:01N 40°41' W 074°05'3 2.7
2018-Jan-18 00:00N 40°41' W 074°01'0 5.0
2018-Jan-17 23:58N 40°41' W 074°01'  
2018-Jan-12 14:59N 40°41' W 074°05'0 0.0
2018-Jan-12 14:30N 40°41' W 074°05'0 0.0
2018-Jan-12 13:59N 40°41' W 074°05'0 0.3
2018-Jan-12 13:30N 40°41' W 074°05'0 0.1
2018-Jan-12 13:00N 40°41' W 074°04'0 0.0
2018-Jan-12 12:30N 40°41' W 074°04'0 0.0
2018-Jan-12 12:00N 40°41' W 074°04'1 1.3
2018-Jan-12 11:30N 40°41' W 074°04'2 3.8
2018-Jan-12 11:00N 40°40' W 074°01'1 2.5
2018-Jan-12 10:30N 40°40' W 073°60'0 0.1
2018-Jan-12 10:00N 40°40' W 073°60'0 0.0
2018-Jan-12 09:30N 40°40' W 073°60'1 2.1
2018-Jan-12 09:00N 40°40' W 074°01'3 5.1
2018-Jan-12 08:30N 40°41' W 074°04'1 1.1
2018-Jan-12 08:00N 40°41' W 074°05'0 0.0
2018-Jan-12 07:30N 40°41' W 074°05'0 0.0
2018-Jan-12 07:00N 40°41' W 074°05'0 0.0
2018-Jan-12 06:30N 40°41' W 074°05'0 0.0
2018-Jan-12 06:00N 40°41' W 074°05'0 0.0
2018-Jan-12 05:30N 40°41' W 074°05'0 0.0
2018-Jan-12 05:00N 40°41' W 074°05'0 0.0
2018-Jan-12 04:30N 40°41' W 074°05'0 0.0
2018-Jan-12 04:00N 40°41' W 074°05'0 0.0
2018-Jan-12 03:30N 40°41' W 074°05'0 0.0
2018-Jan-12 03:00N 40°41' W 074°05'0 0.0
2018-Jan-12 02:30N 40°41' W 074°05'0 0.0
2018-Jan-12 02:00N 40°41' W 074°05'0 0.6
2018-Jan-12 01:23N 40°41' W 074°04'2 4.9
2018-Jan-12 01:00N 40°42' W 074°02'4 7.2
2018-Jan-12 00:30N 40°44' W 073°58'2 0.6
2018-Jan-11 21:19N 40°46' W 073°57'3 8.3
2018-Jan-11 21:00N 40°43' W 073°58'4 8.1
2018-Jan-11 20:30N 40°41' W 074°02'2 3.4
2018-Jan-11 20:00N 40°41' W 074°04'0 0.3
2018-Jan-11 19:30N 40°41' W 074°05'0 0.0
2018-Jan-11 19:00N 40°41' W 074°05'0 0.0
2018-Jan-11 18:30N 40°41' W 074°05'0 0.0
2018-Jan-11 17:59N 40°41' W 074°05'0 0.1
2018-Jan-11 17:30N 40°41' W 074°05'3 5.8
2018-Jan-11 17:00N 40°40' W 074°01'0 0.9
2018-Jan-11 16:30N 40°40' W 074°01'3 6.3
2018-Jan-11 16:00N 40°37' W 074°03'0 0.0
2018-Jan-11 09:45N 40°37' W 074°02'2 6.8
2018-Jan-11 09:30N 40°38' W 074°03'2 4.3
2018-Jan-11 09:00N 40°40' W 074°01'0 0.1
2018-Jan-11 08:30N 40°40' W 074°01'0 0.0
2018-Jan-11 08:00N 40°40' W 074°01'0 0.0
2018-Jan-11 07:30N 40°40' W 074°01'1 1.7
2018-Jan-11 07:00N 40°41' W 074°02'4 8.5
2018-Jan-11 06:30N 40°45' W 074°01'1 2.3
2018-Jan-11 06:00N 40°46' W 074°00'0 0.5
2018-Jan-11 05:30N 40°46' W 074°00'0 0.0
2018-Jan-11 04:59N 40°46' W 074°00'0 0.1
2018-Jan-11 03:07N 40°46' W 074°00'0 3.0
2018-Jan-11 02:59N 40°46' W 074°01'2 4.8
2018-Jan-11 02:30N 40°43' W 074°01'3 6.7
2018-Jan-11 02:00N 40°40' W 074°03'1 2.2
2018-Jan-11 01:30N 40°41' W 074°05'0 0.0
2018-Jan-11 01:00N 40°41' W 074°05'0 0.0
2018-Jan-11 00:30N 40°41' W 074°05'0 0.0
2018-Jan-11 00:00N 40°41' W 074°05'0 0.0
2018-Jan-10 23:30N 40°41' W 074°05'0 0.0
2018-Jan-10 23:00N 40°41' W 074°05'0 0.0
2018-Jan-10 22:30N 40°41' W 074°05'0 0.0
2018-Jan-10 22:00N 40°41' W 074°05'0 0.0
2018-Jan-10 21:30N 40°41' W 074°05'2 3.7
2018-Jan-10 21:00N 40°41' W 074°02'4 7.5
2018-Jan-10 20:30N 40°45' W 074°01'1 2.3
2018-Jan-10 19:59N 40°46' W 073°60'0 0.0
2018-Jan-10 19:24N 40°46' W 073°60'0 0.1
2018-Jan-10 18:59N 40°46' W 074°00'0 0.1
2018-Jan-10 18:30N 40°46' W 073°60'0 0.2
2018-Jan-10 18:00N 40°46' W 074°00'0 0.1
2018-Jan-10 17:30N 40°46' W 074°00'0 0.8
2018-Jan-10 17:00N 40°46' W 074°00'2 4.1
2018-Jan-10 16:30N 40°44' W 074°01'3 6.8
2018-Jan-10 16:00N 40°41' W 074°03'1 2.3
2018-Jan-10 15:30N 40°41' W 074°04'0 0.1
2018-Jan-10 15:00N 40°41' W 074°04'0 0.1
2018-Jan-10 14:29N 40°41' W 074°04'  
Track history (hours):
 
Tides and Currents Weather Stations Pressure Air Temp Water Temp Dewpoint Dewpoint Depression Visibility Wind Speed Wind Dir Waves Ship Positions

MV Sea Wolf

Owner: SEA WOLF MARINE TOWING & TRANSPORTATION, Bayonne, NJ. More information available from US FCC via Universal Licensing System and Coast Guard Vessel Documentation Center.

Last reported at 2018-Jan-20 14:18 UTC. Time now 2018-Jan-23 10:13 UTC.
Position N 39°35' W 074°11'.

Length 66 m; draft 10 m.

MMSI: 367002350.

Date/timePositionNaut miles runAvg speedWind from/ knotsBaromVisibWave heightAir tempDewpointWater temp
2018-Jan-20 14:18N 39°35' W 074°11'3 7.3
2018-Jan-20 13:51N 39°38' W 074°09'3 7.3
2018-Jan-20 13:30N 39°40' W 074°08'4 7.3
2018-Jan-20 12:58N 39°43' W 074°05'42 7.5
2018-Jan-20 07:18N 40°25' W 073°56'2 7.8
2018-Jan-20 07:00N 40°27' W 073°56'5 9.4
2018-Jan-20 06:30N 40°30' W 074°01'4 7.0
2018-Jan-20 06:00N 40°33' W 074°03'4 8.7
2018-Jan-20 05:30N 40°38' W 074°03'4 7.3
2018-Jan-20 05:00N 40°41' W 074°05'0 0.0
2018-Jan-20 04:30N 40°41' W 074°05'2 3.1
2018-Jan-20 04:00N 40°40' W 074°03'2 3.5
2018-Jan-20 03:30N 40°40' W 074°01'1 2.3
2018-Jan-20 03:00N 40°41' W 074°01'2 4.3
2018-Jan-20 02:30N 40°42' W 073°59'2 4.1
2018-Jan-20 02:00N 40°44' W 073°58'1 1.6
2018-Jan-20 01:30N 40°44' W 073°57'0 0.1
2018-Jan-20 00:58N 40°44' W 073°57'0 0.0
2018-Jan-20 00:30N 40°44' W 073°57'0 0.0
2018-Jan-20 00:00N 40°44' W 073°57'0 0.2
2018-Jan-19 23:30N 40°44' W 073°57'3 6.7
2018-Jan-19 23:00N 40°42' W 074°00'3 6.0
2018-Jan-19 22:30N 40°40' W 074°03'1 2.3
2018-Jan-19 22:00N 40°41' W 074°05'0 0.2
2018-Jan-19 21:30N 40°41' W 074°05'0 0.0
2018-Jan-19 21:00N 40°41' W 074°05'0 0.0
2018-Jan-19 20:29N 40°41' W 074°05'0 0.0
2018-Jan-19 20:00N 40°41' W 074°05'0 0.0
2018-Jan-19 19:30N 40°41' W 074°05'0 0.0
2018-Jan-19 19:00N 40°41' W 074°05'0 0.0
2018-Jan-19 18:30N 40°41' W 074°05'0 0.0
2018-Jan-19 18:00N 40°41' W 074°05'0 0.3
2018-Jan-19 17:30N 40°41' W 074°04'0 0.2
2018-Jan-19 17:00N 40°41' W 074°04'0 0.0
2018-Jan-19 16:30N 40°41' W 074°04'0 0.1
2018-Jan-19 16:00N 40°41' W 074°04'0 0.3
2018-Jan-19 15:30N 40°41' W 074°04'0 0.3
2018-Jan-19 15:00N 40°41' W 074°05'0 0.2
2018-Jan-19 14:30N 40°41' W 074°05'0 0.7
2018-Jan-19 14:00N 40°41' W 074°04'0 0.2
2018-Jan-19 13:30N 40°41' W 074°04'0 0.4
2018-Jan-19 12:30N 40°41' W 074°05'0 0.0
2018-Jan-19 12:00N 40°41' W 074°05'0 0.0
2018-Jan-19 11:30N 40°41' W 074°05'0 0.0
2018-Jan-19 11:00N 40°41' W 074°05'0 0.0
2018-Jan-19 10:30N 40°41' W 074°05'0 0.0
2018-Jan-19 10:00N 40°41' W 074°05'0 0.0
2018-Jan-19 09:30N 40°41' W 074°05'0 0.0
2018-Jan-19 09:00N 40°41' W 074°05'0 0.5
2018-Jan-19 08:30N 40°41' W 074°04'2 4.7
2018-Jan-19 08:00N 40°40' W 074°02'1 2.1
2018-Jan-19 07:30N 40°40' W 074°01'0 0.3
2018-Jan-19 07:00N 40°40' W 074°01'3 5.6
2018-Jan-19 06:30N 40°42' W 073°60'3 5.4
2018-Jan-19 06:00N 40°44' W 073°57'0 0.2
2018-Jan-19 05:30N 40°44' W 073°57'3 5.9
2018-Jan-19 05:00N 40°47' W 073°55'3 5.8
2018-Jan-19 04:29N 40°49' W 073°52'0 0.1
2018-Jan-19 03:32N 40°49' W 073°52'0 6.3
2018-Jan-19 03:30N 40°48' W 073°52'3 6.6
2018-Jan-19 03:00N 40°47' W 073°56'3 5.2
2018-Jan-19 02:29N 40°44' W 073°57'0 0.6
2018-Jan-19 02:00N 40°44' W 073°57'0 0.0
2018-Jan-19 01:28N 40°44' W 073°57'0 0.0
2018-Jan-19 01:00N 40°44' W 073°57'0 0.0
2018-Jan-19 00:30N 40°44' W 073°57'1 1.1
2018-Jan-18 23:59N 40°44' W 073°57'1 1.1
2018-Jan-18 23:30N 40°44' W 073°58'3 5.9
2018-Jan-18 23:00N 40°42' W 074°00'3 5.3
2018-Jan-18 22:30N 40°40' W 074°03'1 2.5
2018-Jan-18 21:59N 40°41' W 074°04'0 0.1
2018-Jan-18 21:30N 40°41' W 074°05'0 0.3
2018-Jan-18 21:00N 40°41' W 074°05'0 0.0
2018-Jan-18 20:30N 40°41' W 074°05'2 4.2
2018-Jan-18 20:00N 40°39' W 074°05'1 2.3
2018-Jan-18 19:30N 40°39' W 074°07'0 0.0
2018-Jan-18 19:00N 40°39' W 074°07'0 0.0
2018-Jan-18 18:30N 40°39' W 074°07'0 0.0
2018-Jan-18 17:59N 40°39' W 074°07'1 1.8
2018-Jan-18 17:30N 40°39' W 074°06'2 4.8
2018-Jan-18 17:00N 40°41' W 074°05'0 0.0
2018-Jan-18 16:30N 40°41' W 074°05'0 0.0
2018-Jan-18 16:00N 40°41' W 074°05'0 0.0
2018-Jan-18 15:30N 40°41' W 074°05'0 0.0
2018-Jan-18 15:00N 40°41' W 074°05'0 0.0
2018-Jan-18 14:30N 40°41' W 074°05'0 0.1
2018-Jan-18 14:00N 40°41' W 074°05'0 0.1
2018-Jan-18 13:30N 40°41' W 074°05'0 0.0
2018-Jan-18 13:00N 40°41' W 074°05'0 0.0
2018-Jan-18 12:30N 40°41' W 074°05'0 0.0
2018-Jan-18 12:00N 40°41' W 074°05'0 0.0
2018-Jan-18 11:30N 40°41' W 074°05'0 0.0
2018-Jan-18 11:00N 40°41' W 074°05'0 0.0
2018-Jan-18 10:31N 40°41' W 074°05'0 0.0
2018-Jan-18 10:01N 40°41' W 074°05'0 0.0
2018-Jan-18 09:31N 40°41' W 074°05'0 0.0
2018-Jan-18 09:01N 40°41' W 074°05'0 0.0
2018-Jan-18 08:30N 40°41' W 074°05'0 0.0
2018-Jan-18 08:01N 40°41' W 074°05'0 0.0
2018-Jan-18 07:31N 40°41' W 074°05'0 0.0
2018-Jan-18 07:00N 40°41' W 074°05'0 0.0
2018-Jan-18 06:30N 40°41' W 074°05'0 0.0
2018-Jan-18 06:01N 40°41' W 074°05'0 0.0
2018-Jan-18 05:31N 40°41' W 074°05'0 0.0
2018-Jan-18 05:00N 40°41' W 074°05'0 0.0
2018-Jan-18 04:31N 40°41' W 074°05'0 0.0
2018-Jan-18 04:00N 40°41' W 074°05'0 0.0
2018-Jan-18 03:31N 40°41' W 074°05'0 0.0
2018-Jan-18 03:00N 40°41' W 074°05'0 0.0
2018-Jan-18 02:30N 40°41' W 074°05'0 0.0
2018-Jan-18 02:01N 40°41' W 074°05'0 0.0
2018-Jan-18 01:31N 40°41' W 074°05'0 0.0
2018-Jan-18 01:01N 40°41' W 074°05'3 2.7
2018-Jan-18 00:00N 40°41' W 074°01'0 5.0
2018-Jan-17 23:58N 40°41' W 074°01'  
2018-Jan-12 14:59N 40°41' W 074°05'0 0.0
2018-Jan-12 14:30N 40°41' W 074°05'0 0.0
2018-Jan-12 13:59N 40°41' W 074°05'0 0.3
2018-Jan-12 13:30N 40°41' W 074°05'0 0.1
2018-Jan-12 13:00N 40°41' W 074°04'0 0.0
2018-Jan-12 12:30N 40°41' W 074°04'0 0.0
2018-Jan-12 12:00N 40°41' W 074°04'1 1.3
2018-Jan-12 11:30N 40°41' W 074°04'2 3.8
2018-Jan-12 11:00N 40°40' W 074°01'1 2.5
2018-Jan-12 10:30N 40°40' W 073°60'0 0.1
2018-Jan-12 10:00N 40°40' W 073°60'0 0.0
2018-Jan-12 09:30N 40°40' W 073°60'1 2.1
2018-Jan-12 09:00N 40°40' W 074°01'3 5.1
2018-Jan-12 08:30N 40°41' W 074°04'1 1.1
2018-Jan-12 08:00N 40°41' W 074°05'0 0.0
2018-Jan-12 07:30N 40°41' W 074°05'0 0.0
2018-Jan-12 07:00N 40°41' W 074°05'0 0.0
2018-Jan-12 06:30N 40°41' W 074°05'0 0.0
2018-Jan-12 06:00N 40°41' W 074°05'0 0.0
2018-Jan-12 05:30N 40°41' W 074°05'0 0.0
2018-Jan-12 05:00N 40°41' W 074°05'0 0.0
2018-Jan-12 04:30N 40°41' W 074°05'0 0.0
2018-Jan-12 04:00N 40°41' W 074°05'0 0.0
2018-Jan-12 03:30N 40°41' W 074°05'0 0.0
2018-Jan-12 03:00N 40°41' W 074°05'0 0.0
2018-Jan-12 02:30N 40°41' W 074°05'0 0.0
2018-Jan-12 02:00N 40°41' W 074°05'0 0.6
2018-Jan-12 01:23N 40°41' W 074°04'2 4.9
2018-Jan-12 01:00N 40°42' W 074°02'4 7.2
2018-Jan-12 00:30N 40°44' W 073°58'2 0.6
2018-Jan-11 21:19N 40°46' W 073°57'3 8.3
2018-Jan-11 21:00N 40°43' W 073°58'4 8.1
2018-Jan-11 20:30N 40°41' W 074°02'2 3.4
2018-Jan-11 20:00N 40°41' W 074°04'0 0.3
2018-Jan-11 19:30N 40°41' W 074°05'0 0.0
2018-Jan-11 19:00N 40°41' W 074°05'0 0.0
2018-Jan-11 18:30N 40°41' W 074°05'0 0.0
2018-Jan-11 17:59N 40°41' W 074°05'0 0.1
2018-Jan-11 17:30N 40°41' W 074°05'3 5.8
2018-Jan-11 17:00N 40°40' W 074°01'0 0.9
2018-Jan-11 16:30N 40°40' W 074°01'3 6.3
2018-Jan-11 16:00N 40°37' W 074°03'0 0.0
2018-Jan-11 09:45N 40°37' W 074°02'2 6.8
2018-Jan-11 09:30N 40°38' W 074°03'2 4.3
2018-Jan-11 09:00N 40°40' W 074°01'0 0.1
2018-Jan-11 08:30N 40°40' W 074°01'0 0.0
2018-Jan-11 08:00N 40°40' W 074°01'0 0.0
2018-Jan-11 07:30N 40°40' W 074°01'1 1.7
2018-Jan-11 07:00N 40°41' W 074°02'4 8.5
2018-Jan-11 06:30N 40°45' W 074°01'1 2.3
2018-Jan-11 06:00N 40°46' W 074°00'0 0.5
2018-Jan-11 05:30N 40°46' W 074°00'0 0.0
2018-Jan-11 04:59N 40°46' W 074°00'0 0.1
2018-Jan-11 03:07N 40°46' W 074°00'0 3.0
2018-Jan-11 02:59N 40°46' W 074°01'2 4.8
2018-Jan-11 02:30N 40°43' W 074°01'3 6.7
2018-Jan-11 02:00N 40°40' W 074°03'1 2.2
2018-Jan-11 01:30N 40°41' W 074°05'0 0.0
2018-Jan-11 01:00N 40°41' W 074°05'0 0.0
2018-Jan-11 00:30N 40°41' W 074°05'0 0.0
2018-Jan-11 00:00N 40°41' W 074°05'0 0.0
2018-Jan-10 23:30N 40°41' W 074°05'0 0.0
2018-Jan-10 23:00N 40°41' W 074°05'0 0.0
2018-Jan-10 22:30N 40°41' W 074°05'0 0.0
2018-Jan-10 22:00N 40°41' W 074°05'0 0.0
2018-Jan-10 21:30N 40°41' W 074°05'2 3.7
2018-Jan-10 21:00N 40°41' W 074°02'4 7.5
2018-Jan-10 20:30N 40°45' W 074°01'1 2.3
2018-Jan-10 19:59N 40°46' W 073°60'0 0.0
2018-Jan-10 19:24N 40°46' W 073°60'0 0.1
2018-Jan-10 18:59N 40°46' W 074°00'0 0.1
2018-Jan-10 18:30N 40°46' W 073°60'0 0.2
2018-Jan-10 18:00N 40°46' W 074°00'0 0.1
2018-Jan-10 17:30N 40°46' W 074°00'0 0.8
2018-Jan-10 17:00N 40°46' W 074°00'2 4.1
2018-Jan-10 16:30N 40°44' W 074°01'3 6.8
2018-Jan-10 16:00N 40°41' W 074°03'1 2.3
2018-Jan-10 15:30N 40°41' W 074°04'0 0.1
2018-Jan-10 15:00N 40°41' W 074°04'0 0.1
2018-Jan-10 14:29N 40°41' W 074°04'  

Dump ship's entire track history